createdAt,value
2019-05-25T00:01:27.575Z,14.00
2019-05-25T00:03:59.016Z,14.00
2019-05-25T00:06:27.813Z,13.90
2019-05-25T00:09:02.616Z,13.90
2019-05-25T00:11:37.172Z,13.80
2019-05-25T00:14:11.752Z,13.80
2019-05-25T00:16:40.528Z,13.80
2019-05-25T00:19:09.416Z,13.80
2019-05-25T00:21:38.198Z,13.90
2019-05-25T00:24:12.105Z,13.90
2019-05-25T00:26:37.483Z,13.80
2019-05-25T00:29:08.319Z,13.80
2019-05-25T00:31:43.105Z,13.80
2019-05-25T00:34:12.038Z,13.70
2019-05-25T00:36:41.021Z,13.70
2019-05-25T00:39:09.852Z,13.60
2019-05-25T00:41:41.566Z,13.60
2019-05-25T00:44:16.404Z,13.60
2019-05-25T00:46:47.438Z,13.50
2019-05-25T00:49:17.176Z,13.50
2019-05-25T00:51:52.897Z,13.50
2019-05-25T00:54:28.095Z,13.50
2019-05-25T00:56:55.801Z,13.40
2019-05-25T00:59:30.331Z,13.40
2019-05-25T01:02:03.002Z,13.40
2019-05-25T01:04:31.916Z,13.30
2019-05-25T01:07:00.887Z,13.30
2019-05-25T01:09:31.708Z,13.40
2019-05-25T01:12:00.476Z,13.30
2019-05-25T01:14:35.417Z,13.40
2019-05-25T01:17:06.360Z,13.40
2019-05-25T01:19:41.034Z,13.40
2019-05-25T01:22:09.827Z,13.40
2019-05-25T01:24:56.379Z,13.40
2019-05-25T01:27:31.009Z,13.40
2019-05-25T01:29:59.989Z,13.40
2019-05-25T01:32:34.740Z,13.40
2019-05-25T01:35:10.763Z,13.40
2019-05-25T01:37:48.345Z,13.40
2019-05-25T01:40:17.284Z,13.40
2019-05-25T01:42:46.175Z,13.30
2019-05-25T01:45:20.678Z,13.20
2019-05-25T01:47:49.693Z,13.10
2019-05-25T01:50:18.480Z,13.10
2019-05-25T01:52:47.482Z,13.10
2019-05-25T01:55:16.223Z,13.00
2019-05-25T01:57:47.200Z,13.00
2019-05-25T02:00:22.178Z,12.90
2019-05-25T02:02:51.226Z,12.90
2019-05-25T02:05:23.120Z,12.90
2019-05-25T02:07:54.743Z,12.90
2019-05-25T02:10:26.632Z,12.90
2019-05-25T02:12:55.428Z,12.90
2019-05-25T02:15:24.256Z,12.80
2019-05-25T02:17:53.064Z,12.90
2019-05-25T02:20:22.818Z,12.90
2019-05-25T02:22:51.635Z,12.90
2019-05-25T02:25:20.432Z,12.90
2019-05-25T02:27:51.865Z,12.90
2019-05-25T02:30:23.641Z,12.90
2019-05-25T02:32:55.170Z,13.00
2019-05-25T02:35:27.123Z,13.00
2019-05-25T02:37:57.072Z,13.00
2019-05-25T02:40:26.003Z,13.00
2019-05-25T02:42:56.751Z,13.00
2019-05-25T02:45:25.590Z,13.10
2019-05-25T02:47:54.425Z,13.10
2019-05-25T02:50:23.265Z,13.10
2019-05-25T02:52:52.164Z,13.10
2019-05-25T02:55:33.864Z,13.10
2019-05-25T02:57:52.867Z,13.10
2019-05-25T03:00:24.636Z,13.10
2019-05-25T03:02:53.472Z,13.10
2019-05-25T03:05:22.261Z,13.20
2019-05-25T03:07:56.108Z,13.20
2019-05-25T03:10:24.894Z,13.20
2019-05-25T03:12:55.568Z,13.20
2019-05-25T03:15:24.477Z,13.20
2019-05-25T03:17:58.978Z,13.20
2019-05-25T03:20:30.835Z,13.20
2019-05-25T03:23:00.729Z,13.20
2019-05-25T03:25:29.523Z,13.20
2019-05-25T03:27:58.344Z,13.20
2019-05-25T03:30:33.202Z,13.10
2019-05-25T03:33:07.741Z,13.10
2019-05-25T03:35:36.564Z,13.10
2019-05-25T03:38:05.343Z,13.10
2019-05-25T03:40:39.921Z,13.10
2019-05-25T03:43:08.712Z,13.10
2019-05-25T03:45:37.672Z,13.20
2019-05-25T03:48:06.573Z,13.20
2019-05-25T03:50:38.569Z,13.20
2019-05-25T03:53:07.361Z,13.10
2019-05-25T03:55:36.318Z,13.10
2019-05-25T03:58:05.321Z,13.10
2019-05-25T04:00:38.413Z,13.00
2019-05-25T04:03:10.817Z,13.00
2019-05-25T04:05:42.168Z,12.90
2019-05-25T04:08:10.952Z,13.00
2019-05-25T04:10:39.773Z,13.00
2019-05-25T04:13:08.551Z,13.00
2019-05-25T04:15:37.328Z,13.00
2019-05-25T04:18:06.147Z,12.90
2019-05-25T04:20:36.132Z,12.90
2019-05-25T04:23:09.027Z,12.90
2019-05-25T04:25:38.871Z,12.90
2019-05-25T04:28:08.635Z,13.00
2019-05-25T04:30:37.420Z,12.90
2019-05-25T04:33:12.004Z,12.90
2019-05-25T04:35:40.782Z,12.80
2019-05-25T04:38:09.571Z,12.70
2019-05-25T04:40:40.406Z,12.70
2019-05-25T04:43:15.067Z,12.60
2019-05-25T04:45:49.860Z,12.60
2019-05-25T04:48:24.592Z,12.60
2019-05-25T04:50:59.118Z,12.60
2019-05-25T04:53:33.666Z,12.70
2019-05-25T04:56:02.474Z,12.70
2019-05-25T04:58:31.306Z,12.80
2019-05-25T05:01:05.790Z,12.70
2019-05-25T05:03:34.621Z,12.70
2019-05-25T05:06:09.342Z,12.80
2019-05-25T05:08:39.107Z,12.80
2019-05-25T05:11:07.886Z,12.80
2019-05-25T05:13:36.732Z,12.80
2019-05-25T05:16:06.509Z,12.90
2019-05-25T05:18:35.296Z,13.00
2019-05-25T05:21:06.795Z,13.00
2019-05-25T05:23:41.511Z,13.10
2019-05-25T05:26:16.336Z,13.10
2019-05-25T05:28:49.252Z,13.20
2019-05-25T05:31:23.630Z,13.20
2019-05-25T05:33:51.806Z,13.30
2019-05-25T05:36:22.576Z,13.40
2019-05-25T05:38:53.923Z,13.40
2019-05-25T05:41:26.899Z,13.50
2019-05-25T05:43:57.726Z,13.50
2019-05-25T05:46:28.151Z,13.50
2019-05-25T05:48:58.065Z,13.60
2019-05-25T05:51:29.933Z,13.60
2019-05-25T05:54:03.324Z,13.70
2019-05-25T05:56:34.740Z,13.70
2019-05-25T05:59:06.205Z,13.80
2019-05-25T06:01:40.999Z,13.90
2019-05-25T06:04:11.775Z,13.90
2019-05-25T06:06:43.191Z,13.90
2019-05-25T06:09:12.030Z,13.80
2019-05-25T06:11:41.826Z,13.80
2019-05-25T06:14:10.979Z,13.80
2019-05-25T06:16:39.821Z,13.80
2019-05-25T06:19:09.595Z,13.70
2019-05-25T06:21:38.393Z,13.70
2019-05-25T06:24:07.334Z,13.70
2019-05-25T06:26:36.145Z,13.60
2019-05-25T06:29:05.137Z,13.50
2019-05-25T06:31:33.991Z,13.50
2019-05-25T06:34:08.732Z,13.60
2019-05-25T06:36:37.551Z,13.60
2019-05-25T06:39:08.145Z,13.50
2019-05-25T06:41:36.933Z,13.50
2019-05-25T06:44:06.306Z,13.50
2019-05-25T06:46:35.123Z,13.40
2019-05-25T06:49:06.531Z,13.50
2019-05-25T06:51:35.448Z,13.50
2019-05-25T06:54:10.079Z,13.60
2019-05-25T06:56:38.963Z,13.60
2019-05-25T06:59:08.779Z,13.60
2019-05-25T07:01:40.333Z,13.50
2019-05-25T07:04:15.054Z,13.50
2019-05-25T07:06:47.119Z,13.50
2019-05-25T07:09:22.065Z,13.40
2019-05-25T07:11:50.947Z,13.50
2019-05-25T07:14:25.776Z,13.50
2019-05-25T07:16:54.665Z,13.50
2019-05-25T07:19:23.557Z,13.50
2019-05-25T07:21:53.681Z,13.60
2019-05-25T07:24:23.691Z,13.60
2019-05-25T07:26:52.686Z,13.60
2019-05-25T07:29:21.516Z,13.70
2019-05-25T07:31:56.099Z,13.80
2019-05-25T07:34:24.989Z,13.80
2019-05-25T07:36:56.951Z,13.80
2019-05-25T07:39:31.412Z,14.00
2019-05-25T07:42:02.392Z,14.20
2019-05-25T07:44:31.407Z,14.40
2019-05-25T07:47:06.102Z,14.50
2019-05-25T07:49:35.886Z,14.50
2019-05-25T07:52:04.933Z,14.60
2019-05-25T07:54:39.765Z,14.60
2019-05-25T07:57:09.883Z,14.50
2019-05-25T07:59:44.713Z,14.50
2019-05-25T08:02:13.707Z,14.50
2019-05-25T08:04:42.598Z,14.60
2019-05-25T08:07:11.487Z,14.70
2019-05-25T08:09:42.938Z,15.00
2019-05-25T08:12:11.711Z,15.20
2019-05-25T08:14:44.914Z,15.30
2019-05-25T08:17:12.268Z,15.40
2019-05-25T08:19:41.161Z,15.50
2019-05-25T08:22:10.049Z,15.50
2019-05-25T08:24:39.004Z,15.60
2019-05-25T08:27:09.878Z,15.70
2019-05-25T08:29:41.031Z,15.70
2019-05-25T08:32:12.987Z,15.70
2019-05-25T08:34:47.916Z,15.90
2019-05-25T08:37:19.571Z,16.00
2019-05-25T08:39:48.350Z,16.20
2019-05-25T08:42:17.352Z,16.50
2019-05-25T08:44:52.285Z,16.90
2019-05-25T08:47:23.824Z,17.20
2019-05-25T08:49:52.854Z,17.40
2019-05-25T08:52:27.412Z,17.60
2019-05-25T08:54:56.659Z,17.70
2019-05-25T08:57:31.355Z,17.80
2019-05-25T09:00:03.611Z,18.00
2019-05-25T09:02:32.541Z,18.30
2019-05-25T09:05:05.648Z,18.50
2019-05-25T09:07:35.487Z,18.60
2019-05-25T09:10:06.374Z,18.60
2019-05-25T09:12:36.161Z,18.50
2019-05-25T09:15:06.690Z,18.40
2019-05-25T09:17:38.154Z,18.20
2019-05-25T09:20:09.975Z,18.10
2019-05-25T09:22:38.825Z,18.00
2019-05-25T09:25:10.534Z,18.10
2019-05-25T09:27:39.319Z,18.40
2019-05-25T09:30:10.360Z,18.90
2019-05-25T09:32:41.957Z,19.30
2019-05-25T09:35:12.165Z,19.60
2019-05-25T09:37:43.638Z,19.60
2019-05-25T09:40:12.635Z,19.60
2019-05-25T09:42:47.449Z,19.80
2019-05-25T09:45:16.350Z,20.10
2019-05-25T09:47:50.835Z,20.60
2019-05-25T09:50:19.618Z,20.90
2019-05-25T09:52:48.456Z,21.10
2019-05-25T09:55:18.194Z,21.30
2019-05-25T09:57:46.991Z,21.70
2019-05-25T10:00:17.702Z,22.20
2019-05-25T10:02:46.893Z,22.70
2019-05-25T10:05:16.918Z,23.00
2019-05-25T10:07:47.770Z,23.10
2019-05-25T10:10:17.458Z,23.00
2019-05-25T10:12:46.253Z,23.00
2019-05-25T10:15:15.408Z,23.00
2019-05-25T10:17:44.200Z,22.90
2019-05-25T10:20:16.187Z,22.70
2019-05-25T10:22:45.020Z,22.60
2019-05-25T10:25:14.211Z,22.50
2019-05-25T10:27:42.998Z,22.40
2019-05-25T10:30:12.435Z,22.40
2019-05-25T10:32:41.245Z,22.40
2019-05-25T10:35:11.395Z,22.40
2019-05-25T10:37:40.251Z,22.40
2019-05-25T10:40:14.892Z,22.50
2019-05-25T10:42:45.707Z,22.90
2019-05-25T10:45:20.277Z,23.30
2019-05-25T10:47:49.081Z,23.80
2019-05-25T10:50:21.583Z,24.20
2019-05-25T10:52:50.448Z,24.40
2019-05-25T10:55:19.438Z,24.50
2019-05-25T10:57:48.267Z,24.60
2019-05-25T11:00:19.751Z,24.50
2019-05-25T11:02:48.614Z,24.30
2019-05-25T11:05:23.203Z,24.00
2019-05-25T11:07:55.774Z,23.80
2019-05-25T11:10:24.581Z,23.80
2019-05-25T11:12:56.004Z,24.00
2019-05-25T11:15:24.840Z,24.40
2019-05-25T11:18:00.730Z,24.70
2019-05-25T11:20:32.168Z,24.90
2019-05-25T11:23:00.989Z,25.30
2019-05-25T11:25:29.786Z,25.60
2019-05-25T11:27:58.631Z,25.50
2019-05-25T11:30:27.452Z,25.50
2019-05-25T11:32:56.258Z,25.60
2019-05-25T11:35:26.212Z,25.60
2019-05-25T11:37:55.970Z,25.80
2019-05-25T11:40:24.848Z,25.90
2019-05-25T11:42:53.829Z,26.10
2019-05-25T11:45:24.321Z,26.10
2019-05-25T11:47:54.090Z,26.00
2019-05-25T11:50:22.949Z,25.90
2019-05-25T11:52:52.880Z,25.80
2019-05-25T11:55:24.347Z,25.80
2019-05-25T11:57:53.175Z,25.80
2019-05-25T12:00:25.878Z,25.80
2019-05-25T12:02:56.092Z,25.90
2019-05-25T12:05:24.879Z,25.80
2019-05-25T12:07:57.227Z,25.70
2019-05-25T12:10:27.049Z,25.80
2019-05-25T12:13:01.739Z,25.80
2019-05-25T12:15:30.510Z,25.90
2019-05-25T12:17:59.378Z,25.80
2019-05-25T12:20:28.201Z,25.80
2019-05-25T12:22:56.997Z,25.80
2019-05-25T12:25:25.826Z,25.80
2019-05-25T12:27:55.585Z,25.70
2019-05-25T12:30:39.380Z,25.80
2019-05-25T12:32:55.363Z,25.80
2019-05-25T12:35:26.775Z,25.80
2019-05-25T12:37:55.591Z,25.60
2019-05-25T12:40:24.419Z,25.60
2019-05-25T12:42:53.222Z,25.60
2019-05-25T12:45:23.980Z,25.70
2019-05-25T12:47:54.483Z,25.70
2019-05-25T12:50:23.569Z,25.70
2019-05-25T12:52:52.371Z,25.80
2019-05-25T12:55:21.208Z,25.70
2019-05-25T12:57:52.003Z,25.70
2019-05-25T13:00:20.895Z,25.70
2019-05-25T13:02:49.790Z,25.60
2019-05-25T13:05:33.049Z,25.40
2019-05-25T13:07:49.034Z,25.30
2019-05-25T13:10:20.506Z,25.20
2019-05-25T13:12:49.303Z,25.10
2019-05-25T13:15:18.144Z,25.00
2019-05-25T13:17:50.138Z,24.90
2019-05-25T13:20:24.694Z,24.90
2019-05-25T13:22:53.490Z,24.90
2019-05-25T13:25:22.326Z,24.80
2019-05-25T13:27:53.747Z,24.80
2019-05-25T13:30:22.534Z,24.70
2019-05-25T13:32:51.395Z,24.60
2019-05-25T13:35:20.206Z,24.50
2019-05-25T13:37:48.981Z,24.50
2019-05-25T13:40:17.837Z,24.50
2019-05-25T13:42:46.615Z,24.40
2019-05-25T13:45:21.182Z,24.20
2019-05-25T13:47:49.968Z,24.10
2019-05-25T13:50:22.151Z,24.10
2019-05-25T13:52:51.012Z,24.10
2019-05-25T13:55:19.848Z,24.10
2019-05-25T13:57:49.642Z,24.10
2019-05-25T14:00:18.633Z,24.20
2019-05-25T14:02:47.410Z,24.20
2019-05-25T14:05:16.500Z,24.20
2019-05-25T14:07:45.350Z,24.20
2019-05-25T14:10:15.170Z,24.30
2019-05-25T14:12:46.843Z,24.30
2019-05-25T14:15:16.349Z,24.30
2019-05-25T14:17:45.127Z,24.20
2019-05-25T14:20:20.033Z,24.20
2019-05-25T14:22:51.498Z,24.10
2019-05-25T14:25:23.617Z,24.10
2019-05-25T14:27:52.402Z,24.00
2019-05-25T14:30:24.041Z,23.90
2019-05-25T14:32:52.839Z,23.80
2019-05-25T14:35:23.613Z,23.70
2019-05-25T14:37:52.125Z,23.70
2019-05-25T14:40:26.851Z,23.60
2019-05-25T14:42:55.667Z,23.50
2019-05-25T14:45:24.701Z,23.50
2019-05-25T14:47:53.488Z,23.50
2019-05-25T14:50:22.273Z,23.50
2019-05-25T14:52:51.118Z,23.50
2019-05-25T14:55:19.935Z,23.40
2019-05-25T14:57:48.726Z,23.40
2019-05-25T15:00:20.812Z,23.20
2019-05-25T15:02:55.334Z,23.10
2019-05-25T15:05:24.122Z,23.00
2019-05-25T15:07:56.008Z,23.00
2019-05-25T15:10:26.890Z,23.00
2019-05-25T15:12:55.678Z,22.90
2019-05-25T15:15:24.524Z,22.90
2019-05-25T15:17:54.263Z,22.90
2019-05-25T15:20:23.077Z,22.90
2019-05-25T15:22:54.575Z,22.90
2019-05-25T15:25:23.371Z,22.90
2019-05-25T15:27:57.890Z,22.70
2019-05-25T15:30:26.771Z,22.60
2019-05-25T15:32:58.767Z,22.60
2019-05-25T15:35:27.569Z,22.50
2019-05-25T15:37:56.389Z,22.50
2019-05-25T15:40:26.223Z,22.40
2019-05-25T15:42:56.266Z,22.30
2019-05-25T15:45:25.146Z,22.30
2019-05-25T15:47:53.946Z,22.20
2019-05-25T15:50:23.243Z,22.20
2019-05-25T15:52:52.100Z,22.20
2019-05-25T15:55:26.833Z,22.20
2019-05-25T15:57:58.846Z,22.30
2019-05-25T16:00:47.910Z,22.30
2019-05-25T16:03:18.032Z,22.10
2019-05-25T16:05:47.694Z,22.00
2019-05-25T16:08:18.966Z,22.00
2019-05-25T16:10:48.279Z,21.90
2019-05-25T16:13:17.266Z,21.70
2019-05-25T16:15:46.073Z,21.60
2019-05-25T16:18:14.903Z,21.60
2019-05-25T16:20:45.686Z,21.50
2019-05-25T16:23:23.048Z,21.50
2019-05-25T16:25:51.853Z,21.40
2019-05-25T16:28:20.654Z,21.30
2019-05-25T16:30:49.793Z,21.30
2019-05-25T16:33:21.226Z,21.20
2019-05-25T16:35:50.132Z,21.20
2019-05-25T16:38:22.237Z,21.10
2019-05-25T16:40:53.855Z,21.10
2019-05-25T16:43:28.480Z,21.10
2019-05-25T16:46:03.209Z,21.00
2019-05-25T16:48:34.758Z,20.90
2019-05-25T16:51:09.799Z,20.90
2019-05-25T16:53:41.742Z,20.80
2019-05-25T16:56:10.648Z,20.80
2019-05-25T16:58:39.642Z,20.70
2019-05-25T17:01:11.192Z,20.60
2019-05-25T17:03:43.052Z,20.50
2019-05-25T17:06:12.899Z,20.40
2019-05-25T17:08:43.091Z,20.30
2019-05-25T17:11:11.870Z,20.30
2019-05-25T17:13:40.833Z,20.30
2019-05-25T17:16:10.985Z,20.20
2019-05-25T17:18:42.848Z,20.10
2019-05-25T17:21:11.655Z,20.00
2019-05-25T17:23:40.516Z,19.90
2019-05-25T17:26:11.959Z,19.80
2019-05-25T17:28:40.741Z,19.80
2019-05-25T17:31:09.586Z,19.80
2019-05-25T17:33:46.057Z,19.80
2019-05-25T17:36:14.809Z,19.80
2019-05-25T17:38:46.367Z,19.80
2019-05-25T17:41:18.322Z,19.80
2019-05-25T17:43:47.315Z,19.60
2019-05-25T17:46:17.231Z,19.60
2019-05-25T17:48:48.167Z,19.60
2019-05-25T17:51:19.213Z,19.60
2019-05-25T17:53:51.173Z,19.60
2019-05-25T17:56:22.620Z,19.50
2019-05-25T17:58:54.691Z,19.50
2019-05-25T18:01:26.149Z,19.40
2019-05-25T18:04:06.814Z,19.40
2019-05-25T18:06:28.221Z,19.40
2019-05-25T18:08:57.120Z,19.40
2019-05-25T18:11:27.130Z,19.40
2019-05-25T18:13:56.121Z,19.40
2019-05-25T18:16:30.846Z,19.30
2019-05-25T18:19:05.635Z,19.30
2019-05-25T18:21:35.546Z,19.30
2019-05-25T18:24:04.576Z,19.30
2019-05-25T18:26:33.686Z,19.30
2019-05-25T18:29:02.674Z,19.20
2019-05-25T18:31:31.767Z,19.20
2019-05-25T18:34:00.762Z,19.20
2019-05-25T18:36:30.677Z,19.10
2019-05-25T18:38:59.470Z,19.00
2019-05-25T18:41:28.352Z,19.00
2019-05-25T18:43:57.243Z,18.90
2019-05-25T18:46:32.056Z,18.80
2019-05-25T18:49:09.582Z,18.80
2019-05-25T18:51:38.414Z,18.80
2019-05-25T18:54:07.197Z,18.70
2019-05-25T18:56:36.125Z,18.70
2019-05-25T18:59:04.911Z,18.60
2019-05-25T19:01:36.773Z,18.60
2019-05-25T19:04:11.718Z,18.60
2019-05-25T19:06:43.531Z,18.50
2019-05-25T19:09:12.310Z,18.50
2019-05-25T19:11:41.214Z,18.40
2019-05-25T19:14:09.999Z,18.30
2019-05-25T19:16:38.787Z,18.30
2019-05-25T19:19:07.619Z,18.20
2019-05-25T19:21:37.362Z,18.20
2019-05-25T19:24:06.178Z,18.10
2019-05-25T19:26:35.431Z,18.10
2019-05-25T19:29:10.052Z,18.10
2019-05-25T19:31:44.692Z,18.00
2019-05-25T19:34:13.494Z,18.00
2019-05-25T19:36:45.159Z,18.00
2019-05-25T19:39:14.016Z,17.90
2019-05-25T19:41:42.918Z,17.90
2019-05-25T19:44:11.755Z,17.80
2019-05-25T19:46:40.742Z,17.80
2019-05-25T19:49:09.578Z,17.70
2019-05-25T19:51:38.414Z,17.70
2019-05-25T19:54:07.239Z,17.60
2019-05-25T19:56:38.091Z,17.60
2019-05-25T19:59:06.879Z,17.60
2019-05-25T20:01:35.728Z,17.50
2019-05-25T20:04:04.507Z,17.50
2019-05-25T20:06:35.951Z,17.50
2019-05-25T20:09:06.956Z,17.40
2019-05-25T20:11:39.327Z,17.40
2019-05-25T20:14:08.123Z,17.40
2019-05-25T20:16:37.913Z,17.30
2019-05-25T20:19:09.721Z,17.30
2019-05-25T20:21:38.505Z,17.30
2019-05-25T20:24:07.401Z,17.20
2019-05-25T20:26:37.196Z,17.20
2019-05-25T20:29:06.020Z,17.10
2019-05-25T20:31:37.513Z,17.10
2019-05-25T20:34:06.330Z,17.10
2019-05-25T20:36:35.111Z,17.00
2019-05-25T20:39:05.173Z,17.00
2019-05-25T20:41:33.967Z,17.00
2019-05-25T20:44:02.750Z,17.00
2019-05-25T20:46:31.596Z,16.90
2019-05-25T20:49:00.663Z,16.80
2019-05-25T20:51:29.458Z,16.80
2019-05-25T20:53:58.533Z,16.80
2019-05-25T20:56:27.561Z,16.80
2019-05-25T20:59:02.306Z,16.70
2019-05-25T21:01:31.227Z,16.60
2019-05-25T21:04:00.938Z,16.60
2019-05-25T21:06:35.721Z,16.60
2019-05-25T21:09:07.030Z,16.50
2019-05-25T21:11:41.636Z,16.50
2019-05-25T21:14:12.574Z,16.40
2019-05-25T21:16:44.654Z,16.40
2019-05-25T21:19:14.465Z,16.30
2019-05-25T21:21:49.196Z,16.30
2019-05-25T21:24:17.965Z,16.20
2019-05-25T21:26:49.638Z,16.20
2019-05-25T21:29:21.601Z,16.20
2019-05-25T21:31:51.517Z,16.10
2019-05-25T21:34:23.274Z,16.10
2019-05-25T21:36:52.166Z,16.10
2019-05-25T21:39:21.056Z,16.00
2019-05-25T21:41:49.946Z,15.90
2019-05-25T21:44:19.707Z,15.80
2019-05-25T21:46:48.503Z,15.70
2019-05-25T21:49:17.352Z,15.70
2019-05-25T21:51:48.231Z,15.60
2019-05-25T21:54:19.691Z,15.50
2019-05-25T21:56:54.634Z,15.40
2019-05-25T21:59:23.646Z,15.30
2019-05-25T22:01:52.638Z,15.30
2019-05-25T22:04:24.099Z,15.20
2019-05-25T22:06:52.913Z,15.10
2019-05-25T22:09:21.718Z,15.10
2019-05-25T22:11:50.559Z,15.00
2019-05-25T22:14:22.856Z,14.90
2019-05-25T22:16:51.666Z,14.90
2019-05-25T22:19:26.555Z,14.90
2019-05-25T22:21:55.423Z,14.90
2019-05-25T22:24:24.432Z,14.80
2019-05-25T22:26:56.086Z,14.80
2019-05-25T22:29:30.708Z,14.80
2019-05-25T22:32:02.554Z,14.80
2019-05-25T22:34:31.350Z,14.70
2019-05-25T22:37:00.348Z,14.70
2019-05-25T22:39:29.341Z,14.70
2019-05-25T22:41:58.336Z,14.60
2019-05-25T22:44:29.204Z,14.60
2019-05-25T22:47:01.479Z,14.60
2019-05-25T22:49:30.284Z,14.60
2019-05-25T22:51:59.079Z,14.60
2019-05-25T22:54:27.927Z,14.60
2019-05-25T22:56:56.804Z,14.70
2019-05-25T22:59:31.296Z,14.70
2019-05-25T23:02:02.774Z,14.70
2019-05-25T23:04:34.733Z,14.80
2019-05-25T23:07:03.727Z,14.80
2019-05-25T23:09:33.523Z,14.80
2019-05-25T23:12:02.754Z,14.80
2019-05-25T23:14:31.830Z,14.80
2019-05-25T23:17:01.692Z,14.80
2019-05-25T23:19:32.447Z,14.80
2019-05-25T23:22:01.238Z,14.80
2019-05-25T23:24:30.092Z,14.80
2019-05-25T23:26:58.877Z,14.80
2019-05-25T23:29:27.682Z,14.70
2019-05-25T23:31:56.521Z,14.70
2019-05-25T23:34:31.303Z,14.70
2019-05-25T23:37:13.683Z,14.70
2019-05-25T23:39:31.606Z,14.70
2019-05-25T23:42:06.449Z,14.60
2019-05-25T23:44:35.366Z,14.60
2019-05-25T23:47:04.196Z,14.60
2019-05-25T23:49:33.013Z,14.60
2019-05-25T23:52:07.526Z,14.50
2019-05-25T23:54:36.364Z,14.50
2019-05-25T23:57:05.642Z,14.50
2019-05-25T23:59:34.443Z,14.50
